Nearby METAR Reports

 

KBML - Berlin, NH
Updated: Wed, 18-Oct-2017 9:52pm EDT
Clear
Clear
 Wind from calm
Wind: Calm
Temperature: 36°F , 2°C
Dew Point: 34°F , 1°C
Humidity: 93%
Barometer: 30.24 inHg , 1024 hPa
Clouds: Clear
Visibility: 10 miles , 16 km
2017/10/19 01:52 KBML 190152Z AUTO 00000KT 10SM CLR 02/01 A3024 RMK AO2 SLP250 T00220011
KCON - Concord, NH
Updated: Wed, 18-Oct-2017 9:51pm EDT
Clear
Clear
 Wind from calm
Wind: Calm
Temperature: 45°F , 7°C
Dew Point: 41°F , 5°C
Humidity: 87%
Barometer: 30.26 inHg , 1024.7 hPa
Clouds: Clear
Visibility: 10 miles , 16 km
2017/10/19 01:51 KCON 190151Z AUTO 00000KT 10SM CLR 07/05 A3026 RMK AO2 SLP248 T00720050
KAFN - Lebanon, NH
Updated: Wed, 18-Oct-2017 9:52pm EDT
Clear
Clear
 Wind from S
Wind: S 5 mph , 7 km/h
Temperature: 46°F , 8°C
Wind Chill: 44°F , 7°C
Dew Point: 45°F , 7°C
Humidity: 93%
Barometer: 30.28 inHg , 1025.4 hPa
Clouds: Clear
Visibility: 10 miles , 16 km
2017/10/19 01:52 KAFN 190152Z AUTO 17004KT 10SM CLR 08/07 A3028 RMK AO2 SLP263 T00780072
 
KMHT - Manchester, NH
Updated: Wed, 18-Oct-2017 9:53pm EDT
Clear
Clear
 Wind from calm
Wind: Calm
Temperature: 52°F , 11°C
Dew Point: 46°F , 8°C
Humidity: 82%
Barometer: 30.25 inHg , 1024.4 hPa
Clouds: Clear
Visibility: 10 miles , 16 km
2017/10/19 01:53 KMHT 190153Z 00000KT 10SM CLR 11/08 A3025 RMK AO2 SLP256 T01110083
KMWN - Mount Washington
Updated: Wed, 18-Oct-2017 9:50pm EDT
Clear
Clear
 Wind from W
Wind: W 20 mph , 31 km/h
Temperature: 39°F , 4°C
Wind Chill: 29°F , -2°C
Dew Point: 25°F , -4°C
Humidity: 56%
Clouds: Clear
Visibility: 120 miles , 192 km
2017/10/19 01:50 KMWN 190150Z 27017KT 120SM SKC 04/M04 RMK
K25B - Portsmouth Harbor
Updated: Wed, 31-Dec-1969 7:00pm EST
NOT Current
unable to load K25B data RC=404 Not Found
unable to load K25B data RC=404 Not Found
 
 
KDDH - Bennington, VT
Updated: Wed, 18-Oct-2017 8:54pm EDT
Clear
Clear
 Wind from calm
Wind: Calm
Temperature: 52°F , 11°C
Dew Point: 43°F , 6°C
Humidity: 72%
Barometer: 30.26 inHg , 1024.7 hPa
Clouds: Clear
Visibility: 10 miles , 16 km
2017/10/19 00:54 KDDH 190054Z AUTO 00000KT 10SM CLR 11/06 A3026 RMK AO2 SLP249 T01060061
K9B2 - Newport, VT
Updated: Wed, 31-Dec-1969 7:00pm EST
NOT Current
unable to load K9B2 data RC=404 Not Found
unable to load K9B2 data RC=404 Not Found
 
K1V4 - St Johnsbury, VT
Updated: Wed, 18-Oct-2017 9:54pm EDT

 
Temperature: 45°F , 7°C
Dew Point: 43°F , 6°C
Humidity: 93%
Barometer: 30.22 inHg , 1023.4 hPa
2017/10/19 01:54 K1V4 190154Z AUTO 07/06 A3022 RMK AO1 SLP236 T00720061
 
KBGR - Bangor, ME
Updated: Wed, 18-Oct-2017 9:53pm EDT
Clear
Clear
 Wind from calm
Wind: Calm
Temperature: 45°F , 7°C
Dew Point: 36°F , 2°C
Humidity: 71%
Barometer: 30.23 inHg , 1023.7 hPa
Clouds: Clear
Visibility: 10 miles , 16 km
2017/10/19 01:53 KBGR 190153Z 00000KT 10SM CLR 07/02 A3023 RMK AO2 SLP237 T00670017
KBHB - Bar Harbor, ME
Updated: Wed, 18-Oct-2017 9:56pm EDT
Clear
Clear
 Wind from calm
Wind: Calm
Temperature: 46°F , 8°C
Dew Point: 45°F , 7°C
Humidity: 93%
Barometer: 30.25 inHg , 1024.4 hPa
Clouds: Clear
Visibility: 10 miles , 16 km
2017/10/19 01:56 KBHB 190156Z AUTO 00000KT 10SM CLR 08/07 A3025 RMK AO2 SLP247 T00830072 PNO $
74389 - Gray, ME
Updated: Wed, 31-Dec-1969 7:00pm EST
NOT Current
74389 not loaded
74389 not loaded
 
 
KGNR - Greenville,ME
Updated: Wed, 18-Oct-2017 9:56pm EDT

 Wind from calm
Wind: Calm
Temperature: 43°F , 6°C
Dew Point: 34°F , 1°C
Humidity: 71%
Barometer: 30.19 inHg , 1022.4 hPa
2017/10/19 01:56 KGNR 190156Z AUTO 00000KT 06/01 A3019 RMK AO1 SLP234 T00610006
KOLD - Old Town, ME
Updated: Wed, 31-Dec-1969 7:00pm EST
NOT Current
unable to load KOLD data RC=404 Not Found
unable to load KOLD data RC=404 Not Found
 
KRUM - Rumford, ME
Updated: Wed, 31-Dec-1969 7:00pm EST
NOT Current
unable to load KRUM data RC=404 Not Found
unable to load KRUM data RC=404 Not Found
 






USA Weather Finder


World Weather Websites





Hit Counter
Contact Us

© 2017, johnsnhweather | Weather-Display (10.37S-(b57)) | Valid XHTML 1.0 | Valid CSS

This website is neither affiliated with nor endorsed by the National Weather Service, the town of Pittsburg or any other government agency.
The weather data contained herein is offered without any warranties expressed or implied, and is meant to supplement NOAA weather forecasts and information. Never base important decisions that could result in harm to people or property on this weather information.